Boeing 737-8AS from Ryanair at Eindhoven.
 Regi:EI-CSZ  LARGER
 MSN Year:32780 2002
 Date of picture:2007-09-19 08:32
 Discription:Just landed at RNWY22. On the other side is standing a slogan "Arrividerci Italia".
 Flight: ARR GRO FR9123 Girona Airport Spain
 Logs:
 Metar 19/09/2007 08:25 METAR EHEH 190825Z 21010KT 9999 FEW060 BKN130 11/06 Q1022 BLU BLU=
 Hits: 405 ID: 160

Debriefing: Photographed movements of Airports in NW-Europe.
The images of our site attendant is in authorisation from Queen of Sky.
Copying of images of this site have been prohibited in which manner without the authorisation of the photographer.
In behalf of the crew :"Thank you visiting us" - Contact
Factsheets Boeing, 737-8AS, Ryanair, made by De Plane! © 2006 - 2022 All rights reserved


.